Time;durP1;ratioP1;P1;durP2;ratioP2;P2;SDS_P1;SDS_P2;PMS_P1;PMS_P2;Temp;Humidity;BMP_temperature;BMP_pressure;BME280_temperature;BME280_humidity;BME280_pressure;Samples;Min_cycle;Max_cycle;Signal;HPM_P1;HPM_P2
2022/03/15 00:01:06;;;;;;;42.58;27.92;;;11.50;59.30;;;;;;5073974;28;20382;-67
2022/03/15 00:03:36;;;;;;;34.65;25.95;;;11.50;59.60;;;;;;5073799;28;20028;-66
2022/03/15 00:06:02;;;;;;;40.97;27.23;;;11.40;60.00;;;;;;5074210;28;20031;-67
2022/03/15 00:08:30;;;;;;;37.30;27.15;;;11.40;59.60;;;;;;5073726;28;20025;-66
2022/03/15 00:10:58;;;;;;;36.50;27.60;;;11.40;59.70;;;;;;5074097;28;20466;-67
2022/03/15 00:13:28;;;;;;;44.22;28.58;;;11.30;59.60;;;;;;5073776;28;20116;-65
2022/03/15 00:15:56;;;;;;;41.13;28.20;;;11.30;60.00;;;;;;5073908;28;20074;-67
2022/03/15 00:18:24;;;;;;;35.47;26.40;;;11.30;59.70;;;;;;5073542;28;20024;-67
2022/03/15 00:20:50;;;;;;;37.38;27.70;;;11.30;60.10;;;;;;5073608;28;20123;-66
2022/03/15 00:23:19;;;;;;;40.63;28.17;;;11.30;59.50;;;;;;5072630;28;20056;-65
2022/03/15 00:25:46;;;;;;;38.88;26.60;;;11.20;59.40;;;;;;5073782;28;20016;-67
2022/03/15 00:28:11;;;;;;;34.13;26.67;;;11.30;59.40;;;;;;5073644;28;20029;-66
2022/03/15 00:30:37;;;;;;;38.83;28.05;;;11.30;59.50;;;;;;5072155;28;20055;-64
2022/03/15 00:33:03;;;;;;;41.65;26.80;;;11.30;59.30;;;;;;5072149;28;20017;-65
2022/03/15 00:35:29;;;;;;;36.40;26.63;;;11.20;59.30;;;;;;5073393;28;20381;-65
2022/03/15 00:37:55;;;;;;;32.47;25.92;;;11.20;59.30;;;;;;5073476;28;20163;-66
2022/03/15 00:40:24;;;;;;;34.75;25.98;;;11.20;59.10;;;;;;5073011;28;20040;-65
2022/03/15 00:42:52;;;;;;;40.28;27.10;;;11.10;59.00;;;;;;5071987;28;20033;-67
2022/03/15 00:45:22;;;;;;;37.63;26.45;;;11.10;59.10;;;;;;5073293;28;20024;-67
2022/03/15 00:47:49;;;;;;;32.65;25.25;;;11.00;59.00;;;;;;5073369;28;20031;-65
2022/03/15 00:50:15;;;;;;;32.47;26.08;;;11.00;58.90;;;;;;5072749;28;20030;-65
2022/03/15 00:52:41;;;;;;;36.65;26.33;;;11.00;59.00;;;;;;5072552;28;20123;-70
2022/03/15 00:55:07;;;;;;;37.75;25.65;;;10.90;58.80;;;;;;5073395;28;20070;-70
2022/03/15 00:57:33;;;;;;;33.92;25.50;;;10.90;59.00;;;;;;5073204;28;20041;-69
2022/03/15 00:59:59;;;;;;;34.15;25.25;;;10.80;59.10;;;;;;5071767;28;20394;-68
2022/03/15 01:02:27;;;;;;;37.08;25.38;;;10.80;59.10;;;;;;5073267;28;20503;-70
2022/03/15 01:04:54;;;;;;;37.28;25.65;;;10.70;59.50;;;;;;5074258;28;20023;-70
2022/03/15 01:07:21;;;;;;;37.10;25.17;;;10.70;59.30;;;;;;5073205;28;20060;-72
2022/03/15 01:09:46;;;;;;;35.40;24.67;;;10.60;59.50;;;;;;5073022;28;20024;-69
2022/03/15 01:12:12;;;;;;;33.53;24.92;;;10.60;58.90;;;;;;5073209;28;20356;-72
2022/03/15 01:14:38;;;;;;;37.28;26.27;;;10.70;58.90;;;;;;5072999;28;20063;-68
2022/03/15 01:17:04;;;;;;;40.92;27.42;;;10.70;58.70;;;;;;5072005;28;20036;-71
2022/03/15 01:19:29;;;;;;;35.40;27.42;;;10.70;58.70;;;;;;5072798;28;20119;-65
2022/03/15 01:21:56;;;;;;;38.17;28.25;;;10.60;58.50;;;;;;5072680;28;20036;-72
2022/03/15 01:24:22;;;;;;;36.40;27.30;;;10.60;58.70;;;;;;5074145;28;20025;-70
2022/03/15 01:26:50;;;;;;;41.83;27.75;;;10.60;58.80;;;;;;5073891;28;20100;-67
2022/03/15 01:29:16;;;;;;;36.63;26.98;;;10.50;58.90;;;;;;5073707;28;20012;-71
2022/03/15 01:38:27;;;;;;;34.10;26.40;;;10.40;59.70;;;;;;5073227;28;20059;-70
2022/03/15 01:40:53;;;;;;;32.78;25.85;;;10.40;59.80;;;;;;5072936;28;20025;-67
2022/03/15 01:43:19;;;;;;;34.65;25.90;;;10.30;59.50;;;;;;5072798;28;20062;-73
2022/03/15 01:45:46;;;;;;;41.30;26.17;;;10.40;59.70;;;;;;5072750;28;20060;-72
2022/03/15 01:48:13;;;;;;;37.70;26.13;;;10.40;60.20;;;;;;5071556;28;20043;-73
2022/03/15 01:50:42;;;;;;;34.47;25.92;;;10.30;59.90;;;;;;5072515;28;20040;-66
2022/03/15 01:53:08;;;;;;;31.02;24.23;;;10.30;60.40;;;;;;5072731;28;20028;-67
2022/03/15 01:55:34;;;;;;;34.25;23.50;;;10.30;60.50;;;;;;5071404;28;20051;-66
2022/03/15 01:58:00;;;;;;;37.47;24.58;;;10.30;60.40;;;;;;5070827;28;20052;-65
2022/03/15 02:00:26;;;;;;;38.08;25.30;;;10.30;60.70;;;;;;5072468;28;20031;-68
2022/03/15 02:02:53;;;;;;;36.67;25.98;;;10.30;60.30;;;;;;5074670;28;20032;-65
2022/03/15 02:05:20;;;;;;;32.47;24.05;;;10.30;60.60;;;;;;5075921;28;20115;-69
2022/03/15 02:07:46;;;;;;;33.42;24.40;;;10.20;60.60;;;;;;5076300;28;20043;-67
2022/03/15 02:10:13;;;;;;;33.33;24.05;;;10.20;60.80;;;;;;5075934;28;20024;-65
2022/03/15 02:12:39;;;;;;;32.80;24.17;;;10.20;60.80;;;;;;5076016;28;20086;-65
2022/03/15 02:15:06;;;;;;;40.05;23.88;;;10.10;60.80;;;;;;5076096;28;20370;-67
2022/03/15 02:17:33;;;;;;;30.45;22.63;;;10.10;61.20;;;;;;5075818;28;20032;-65
2022/03/15 02:19:59;;;;;;;31.98;23.77;;;10.10;61.00;;;;;;5075983;28;20024;-65
2022/03/15 02:22:25;;;;;;;30.58;22.85;;;10.10;61.20;;;;;;5074452;28;20037;-67
2022/03/15 02:24:52;;;;;;;33.15;24.52;;;10.10;61.40;;;;;;5075989;28;20044;-66
2022/03/15 02:27:21;;;;;;;29.42;23.05;;;10.10;61.40;;;;;;5075748;28;20115;-65
2022/03/15 02:29:46;;;;;;;30.95;22.83;;;10.00;61.40;;;;;;5075619;28;20036;-66
2022/03/15 02:32:12;;;;;;;30.50;22.95;;;10.00;61.60;;;;;;5075749;28;20469;-65
2022/03/15 02:34:41;;;;;;;29.65;21.73;;;10.10;61.90;;;;;;5075681;28;20032;-65
2022/03/15 02:37:07;;;;;;;27.27;21.90;;;10.00;62.20;;;;;;5075498;28;20054;-70
2022/03/15 02:39:32;;;;;;;30.67;21.95;;;10.00;62.20;;;;;;5075565;28;20031;-66
2022/03/15 02:41:58;;;;;;;27.80;21.60;;;10.00;62.60;;;;;;5075453;28;20033;-67
2022/03/15 02:44:24;;;;;;;30.65;22.00;;;10.00;62.80;;;;;;5075369;28;20017;-66
2022/03/15 02:46:50;;;;;;;31.05;20.98;;;9.90;63.70;;;;;;5075372;28;20369;-67
2022/03/15 02:49:16;;;;;;;27.50;21.23;;;9.90;64.30;;;;;;5074194;28;20020;-67
2022/03/15 02:51:42;;;;;;;28.13;20.52;;;9.90;64.50;;;;;;5075524;28;20028;-68
2022/03/15 02:54:14;;;;;;;26.40;20.50;;;9.90;64.30;;;;;;5075353;28;20017;-65
2022/03/15 02:56:46;;;;;;;28.05;21.35;;;9.90;65.30;;;;;;5075095;28;20532;-67
2022/03/15 02:59:16;;;;;;;28.20;20.30;;;10.00;64.10;;;;;;5074899;28;20428;-66
2022/03/15 03:01:45;;;;;;;33.58;22.35;;;9.90;65.40;;;;;;5075206;28;20066;-65
2022/03/15 03:04:15;;;;;;;27.70;19.45;;;9.90;65.10;;;;;;5075193;28;20027;-65
2022/03/15 03:06:44;;;;;;;24.70;20.30;;;9.90;65.30;;;;;;5075152;28;20040;-67
2022/03/15 03:09:12;;;;;;;27.67;20.00;;;9.80;65.60;;;;;;5074934;28;20118;-66
2022/03/15 03:11:39;;;;;;;27.73;20.95;;;9.80;65.50;;;;;;5075059;28;20036;-66
2022/03/15 03:14:06;;;;;;;26.15;19.38;;;9.80;65.50;;;;;;5074147;28;20048;-65
2022/03/15 03:16:34;;;;;;;25.52;18.58;;;9.80;65.40;;;;;;5074914;28;20028;-67
2022/03/15 03:19:01;;;;;;;27.13;19.25;;;9.70;65.60;;;;;;5074765;28;20466;-65
2022/03/15 03:21:28;;;;;;;27.48;18.98;;;9.70;65.60;;;;;;5074613;28;20385;-68
2022/03/15 03:23:55;;;;;;;24.98;18.38;;;9.70;65.30;;;;;;5075223;28;20151;-67
2022/03/15 03:26:22;;;;;;;29.52;18.65;;;9.60;65.40;;;;;;5073408;28;20025;-66
2022/03/15 03:28:48;;;;;;;25.15;17.58;;;9.60;65.20;;;;;;5074650;28;20076;-65
2022/03/15 03:31:15;;;;;;;27.13;18.42;;;9.70;65.20;;;;;;5074614;28;20028;-65
2022/03/15 03:33:41;;;;;;;25.27;19.15;;;9.70;65.10;;;;;;5074364;28;20037;-65
2022/03/15 03:36:07;;;;;;;25.23;18.73;;;9.70;65.10;;;;;;5074444;28;20027;-65
2022/03/15 03:38:33;;;;;;;29.88;19.20;;;9.70;65.00;;;;;;5074453;28;20029;-66
2022/03/15 03:40:59;;;;;;;24.42;19.52;;;9.70;65.10;;;;;;5074269;28;20107;-65
2022/03/15 03:43:27;;;;;;;23.02;18.60;;;9.70;65.40;;;;;;5074395;28;20505;-69
2022/03/15 03:45:52;;;;;;;26.35;18.77;;;9.70;65.00;;;;;;5074018;28;20482;-66
2022/03/15 03:48:19;;;;;;;26.30;19.85;;;9.70;65.30;;;;;;5074152;28;20033;-64
2022/03/15 03:50:44;;;;;;;24.25;18.80;;;9.60;65.40;;;;;;5074336;28;20090;-66
2022/03/15 03:53:10;;;;;;;30.85;19.17;;;9.60;65.70;;;;;;5074319;28;20020;-67
2022/03/15 03:55:36;;;;;;;27.95;19.02;;;9.60;65.50;;;;;;5072760;28;20036;-65
2022/03/15 03:58:03;;;;;;;28.65;19.75;;;9.60;65.60;;;;;;5074099;28;20057;-65
2022/03/15 04:00:29;;;;;;;26.98;19.45;;;9.60;65.50;;;;;;5073999;28;20024;-66
2022/03/15 04:02:57;;;;;;;28.38;19.38;;;9.60;65.30;;;;;;5074078;28;20044;-66
2022/03/15 04:05:25;;;;;;;31.88;20.48;;;9.70;65.00;;;;;;5073721;28;20017;-65
2022/03/15 04:07:50;;;;;;;27.90;18.73;;;9.70;64.90;;;;;;5074011;28;20670;-67
2022/03/15 04:10:17;;;;;;;26.30;19.00;;;9.60;64.90;;;;;;5073667;28;20125;-66
2022/03/15 04:12:44;;;;;;;25.58;19.23;;;9.60;64.80;;;;;;5073819;28;20170;-66
2022/03/15 04:15:10;;;;;;;26.92;19.52;;;9.60;64.90;;;;;;5073898;28;20206;-66
2022/03/15 04:17:36;;;;;;;28.05;19.60;;;9.60;64.60;;;;;;5073559;28;20113;-68
2022/03/15 04:20:03;;;;;;;26.17;18.83;;;9.50;64.50;;;;;;5073390;28;20067;-64
2022/03/15 04:22:28;;;;;;;28.00;18.83;;;9.50;64.90;;;;;;5072043;28;20490;-66
2022/03/15 04:24:54;;;;;;;25.05;17.75;;;9.50;65.00;;;;;;5073304;28;20024;-66
2022/03/15 04:27:20;;;;;;;22.50;17.23;;;9.40;65.00;;;;;;5073421;28;20035;-67
2022/03/15 04:29:46;;;;;;;26.45;18.15;;;9.40;64.60;;;;;;5073430;28;20033;-65
2022/03/15 04:32:12;;;;;;;26.92;18.05;;;9.40;64.90;;;;;;5073721;28;20358;-65
2022/03/15 04:34:38;;;;;;;23.67;17.50;;;9.40;64.50;;;;;;5073319;28;20557;-66
2022/03/15 04:37:04;;;;;;;21.88;17.90;;;9.40;64.60;;;;;;5073277;28;20048;-65
2022/03/15 04:39:30;;;;;;;28.98;18.65;;;9.40;64.70;;;;;;5073378;28;20416;-66
2022/03/15 04:41:56;;;;;;;25.00;17.13;;;9.40;64.70;;;;;;5073518;28;20039;-66
2022/03/15 04:44:22;;;;;;;25.73;17.92;;;9.40;64.60;;;;;;5073530;28;20017;-64
2022/03/15 04:46:48;;;;;;;24.92;17.90;;;9.50;64.40;;;;;;5073463;28;20074;-64
2022/03/15 04:49:14;;;;;;;25.10;18.02;;;9.50;64.20;;;;;;5073379;28;20056;-65
2022/03/15 04:51:39;;;;;;;22.75;17.98;;;9.50;64.20;;;;;;5071927;28;20064;-66
2022/03/15 04:54:05;;;;;;;25.10;18.63;;;9.50;63.60;;;;;;5073397;28;20016;-64
2022/03/15 04:56:31;;;;;;;22.52;17.20;;;9.50;63.90;;;;;;5073417;28;20036;-65
2022/03/15 04:58:56;;;;;;;25.02;17.92;;;9.50;63.80;;;;;;5073068;28;20053;-67
2022/03/15 05:01:22;;;;;;;25.80;17.52;;;9.50;63.70;;;;;;5073122;28;20038;-65
2022/03/15 05:03:48;;;;;;;23.45;16.33;;;9.40;63.60;;;;;;5073155;28;20028;-66
2022/03/15 05:06:13;;;;;;;24.50;16.88;;;9.40;63.70;;;;;;5072946;28;20021;-70
2022/03/15 05:08:39;;;;;;;23.23;17.27;;;9.40;63.80;;;;;;5072883;28;20071;-65
2022/03/15 05:11:08;;;;;;;23.95;16.55;;;9.30;63.40;;;;;;5073056;28;20029;-65
2022/03/15 05:13:47;;;;;;;21.92;16.98;;;9.30;63.30;;;;;;5073003;28;20470;-65
2022/03/15 05:16:17;;;;;;;23.75;17.67;;;9.30;63.50;;;;;;5073147;28;20021;-66
2022/03/15 05:18:45;;;;;;;23.38;16.60;;;9.30;63.20;;;;;;5073166;28;20138;-69
2022/03/15 05:21:16;;;;;;;22.52;17.05;;;9.30;63.50;;;;;;5072957;28;20036;-66
2022/03/15 05:23:43;;;;;;;24.40;16.67;;;9.40;63.50;;;;;;5072862;28;20031;-65
2022/03/15 05:26:10;;;;;;;22.75;16.13;;;9.40;63.20;;;;;;5072954;28;20031;-65
2022/03/15 05:28:35;;;;;;;32.03;18.23;;;9.30;62.80;;;;;;5072754;28;20024;-65
2022/03/15 05:31:01;;;;;;;20.30;15.98;;;9.30;63.00;;;;;;5073022;28;20102;-67
2022/03/15 05:33:30;;;;;;;24.80;17.45;;;9.30;63.10;;;;;;5073214;28;20355;-67
2022/03/15 05:35:56;;;;;;;23.58;16.05;;;9.40;63.00;;;;;;5072791;28;20024;-66
2022/03/15 05:38:22;;;;;;;25.30;16.50;;;9.40;62.80;;;;;;5075328;28;20509;-65
2022/03/15 05:40:48;;;;;;;22.40;16.27;;;9.40;63.00;;;;;;5076741;28;20075;-65
2022/03/15 05:43:14;;;;;;;25.05;16.48;;;9.50;63.10;;;;;;5076675;28;20044;-65
2022/03/15 05:45:40;;;;;;;27.67;16.75;;;9.40;63.70;;;;;;5076850;28;20036;-66
2022/03/15 05:48:06;;;;;;;26.85;17.13;;;9.40;63.40;;;;;;5076597;28;20020;-65
2022/03/15 05:50:32;;;;;;;24.75;16.38;;;9.40;63.20;;;;;;5076707;28;20017;-66
2022/03/15 05:53:01;;;;;;;23.45;16.30;;;9.50;63.20;;;;;;5076600;28;20351;-67
2022/03/15 05:55:27;;;;;;;25.67;16.63;;;9.50;62.90;;;;;;5076457;28;20120;-69
2022/03/15 05:57:52;;;;;;;22.25;16.90;;;9.60;63.00;;;;;;5076446;28;20056;-64
2022/03/15 06:00:18;;;;;;;24.63;16.67;;;9.60;62.70;;;;;;5076156;28;20478;-67
2022/03/15 06:02:44;;;;;;;22.20;16.55;;;9.60;63.00;;;;;;5076389;28;20037;-68
2022/03/15 06:05:10;;;;;;;23.02;16.67;;;9.50;62.70;;;;;;5075043;28;20032;-67
2022/03/15 06:07:46;;;;;;;24.88;17.13;;;9.70;62.80;;;;;;5076347;28;20485;-66
2022/03/15 06:10:12;;;;;;;21.50;17.02;;;9.70;62.50;;;;;;5075026;28;20082;-67
2022/03/15 06:12:38;;;;;;;23.48;16.85;;;9.70;62.40;;;;;;5075906;28;20045;-66
2022/03/15 06:15:04;;;;;;;26.85;17.48;;;9.80;62.10;;;;;;5074765;28;20025;-69
2022/03/15 06:17:32;;;;;;;20.23;16.27;;;9.80;62.30;;;;;;5074555;28;20083;-74
2022/03/15 06:20:12;;;;;;;28.05;17.63;;;9.80;61.90;;;;;;5076018;28;20016;-76
2022/03/15 06:22:38;;;;;;;21.15;17.23;;;9.90;61.70;;;;;;5075877;28;20481;-77
2022/03/15 06:25:04;;;;;;;27.95;17.35;;;9.90;61.40;;;;;;5074529;28;20077;-73
2022/03/15 06:27:30;;;;;;;21.30;16.50;;;10.00;60.90;;;;;;5075909;28;20039;-66
2022/03/15 06:29:58;;;;;;;23.00;17.60;;;10.00;60.00;;;;;;5075707;28;20351;-69
2022/03/15 06:32:24;;;;;;;22.23;17.17;;;10.10;59.60;;;;;;5075996;28;20027;-68
2022/03/15 06:34:50;;;;;;;23.70;17.40;;;10.30;59.30;;;;;;5075671;28;20036;-72
2022/03/15 06:37:16;;;;;;;24.73;16.95;;;10.40;58.60;;;;;;5075656;28;20020;-77
2022/03/15 06:39:44;;;;;;;24.05;17.05;;;10.50;58.30;;;;;;5074758;28;20040;-73
2022/03/15 06:42:12;;;;;;;24.45;17.45;;;10.60;58.10;;;;;;5075511;28;20044;-69
2022/03/15 06:44:42;;;;;;;26.63;17.90;;;10.70;57.70;;;;;;5075387;28;20069;-67
2022/03/15 06:47:08;;;;;;;27.17;17.98;;;10.80;57.60;;;;;;5075988;28;20029;-71
2022/03/15 06:49:34;;;;;;;27.10;17.75;;;10.90;57.40;;;;;;5073906;28;20373;-66
2022/03/15 06:52:02;;;;;;;27.02;17.50;;;11.00;57.30;;;;;;5074987;28;20025;-77
2022/03/15 06:54:28;;;;;;;28.73;18.65;;;11.10;57.10;;;;;;5075035;28;20025;-76
2022/03/15 06:56:56;;;;;;;24.48;17.77;;;11.30;56.70;;;;;;5075431;28;20025;-76
2022/03/15 06:59:22;;;;;;;24.38;17.25;;;11.50;56.90;;;;;;5073642;28;20102;-81
2022/03/15 07:01:49;;;;;;;27.38;17.15;;;11.60;55.80;;;;;;5073758;28;20351;-76
2022/03/15 07:04:17;;;;;;;26.27;16.70;;;11.70;55.90;;;;;;5075191;28;20017;-77
2022/03/15 07:06:43;;;;;;;27.10;16.98;;;11.80;54.90;;;;;;5074938;28;20031;-73
2022/03/15 07:09:12;;;;;;;32.97;17.10;;;11.90;54.90;;;;;;5074855;28;20035;-75
2022/03/15 07:11:38;;;;;;;27.38;16.15;;;12.00;54.40;;;;;;5075221;28;20489;-76
2022/03/15 07:14:06;;;;;;;26.75;18.17;;;12.10;54.40;;;;;;5074847;28;20052;-67
2022/03/15 07:16:38;;;;;;;23.63;17.60;;;12.30;54.20;;;;;;5074753;28;20064;-77
2022/03/15 07:19:04;;;;;;;23.95;16.60;;;12.50;54.10;;;;;;5074521;28;20107;-67
2022/03/15 07:21:34;;;;;;;27.60;17.17;;;12.50;53.40;;;;;;5074217;28;20473;-78
2022/03/15 07:24:00;;;;;;;24.30;16.23;;;12.60;53.20;;;;;;5074623;28;20070;-79
2022/03/15 07:26:27;;;;;;;29.33;16.67;;;12.70;52.80;;;;;;5074744;28;20059;-81
2022/03/15 07:28:52;;;;;;;24.70;16.73;;;12.70;52.90;;;;;;5074593;28;20056;-72
2022/03/15 07:31:18;;;;;;;27.38;16.58;;;12.80;52.70;;;;;;5074134;28;20029;-79
2022/03/15 07:33:45;;;;;;;24.85;16.02;;;12.90;51.90;;;;;;5074277;28;20035;-80
2022/03/15 07:36:11;;;;;;;22.85;15.93;;;13.00;52.00;;;;;;5074135;28;20491;-75
2022/03/15 07:38:37;;;;;;;22.42;15.75;;;13.00;50.90;;;;;;5074101;28;20046;-74
2022/03/15 07:41:04;;;;;;;21.48;16.50;;;13.00;50.80;;;;;;5075224;28;20037;-65
2022/03/15 07:43:30;;;;;;;28.23;16.13;;;13.00;51.20;;;;;;5074122;28;20032;-66
2022/03/15 07:45:56;;;;;;;27.73;16.73;;;13.10;51.30;;;;;;5074331;28;20471;-66
2022/03/15 07:48:22;;;;;;;24.08;16.75;;;13.20;50.90;;;;;;5073749;28;20028;-67
2022/03/15 07:50:49;;;;;;;29.50;16.95;;;13.30;50.50;;;;;;5073797;28;20078;-66
2022/03/15 07:53:15;;;;;;;22.83;17.65;;;13.40;50.80;;;;;;5073706;28;20028;-65
2022/03/15 07:55:42;;;;;;;23.52;15.77;;;13.40;50.00;;;;;;5073742;28;20499;-65
2022/03/15 07:58:07;;;;;;;29.77;17.27;;;13.50;50.40;;;;;;5073506;28;20079;-66
2022/03/15 08:00:34;;;;;;;27.17;17.63;;;13.50;50.30;;;;;;5073439;28;20478;-74
2022/03/15 08:03:01;;;;;;;31.48;18.08;;;13.60;51.00;;;;;;5075717;28;20474;-70
2022/03/15 08:05:28;;;;;;;21.90;16.85;;;13.60;51.20;;;;;;5073212;28;20028;-67
2022/03/15 08:07:55;;;;;;;27.17;16.75;;;13.60;49.70;;;;;;5073237;28;20107;-69
2022/03/15 08:10:21;;;;;;;20.88;16.77;;;13.60;49.80;;;;;;5073975;28;20028;-68
2022/03/15 08:12:47;;;;;;;20.27;16.17;;;13.60;50.00;;;;;;5073640;28;20517;-79
2022/03/15 08:15:13;;;;;;;27.55;16.88;;;13.70;49.50;;;;;;5073728;28;20017;-76
2022/03/15 08:17:40;;;;;;;29.08;16.80;;;13.70;49.50;;;;;;5074088;28;20095;-71
2022/03/15 08:20:08;;;;;;;24.77;16.55;;;13.70;49.20;;;;;;5072894;28;20032;-78
2022/03/15 08:22:34;;;;;;;27.13;16.17;;;13.70;49.50;;;;;;5075465;28;20265;-77
2022/03/15 08:25:00;;;;;;;27.52;15.57;;;13.70;49.00;;;;;;5075042;28;20017;-68
2022/03/15 08:27:26;;;;;;;25.75;15.93;;;13.70;49.50;;;;;;5075014;28;20370;-73
2022/03/15 08:29:51;;;;;;;20.48;15.88;;;13.70;49.10;;;;;;5072681;28;20032;-77
2022/03/15 08:32:17;;;;;;;21.83;15.80;;;13.70;49.10;;;;;;5086710;28;20028;-69
2022/03/15 08:34:43;;;;;;;25.55;15.35;;;13.70;49.10;;;;;;5080973;28;20032;-70
2022/03/15 08:37:10;;;;;;;27.58;15.95;;;13.70;49.20;;;;;;5073924;28;20054;-66
2022/03/15 08:39:36;;;;;;;20.60;15.63;;;13.80;49.10;;;;;;5074901;28;20029;-68
2022/03/15 08:42:08;;;;;;;26.52;15.07;;;13.80;49.10;;;;;;5074274;28;20075;-67
2022/03/15 08:44:35;;;;;;;25.83;15.85;;;13.80;50.10;;;;;;5076859;28;20103;-67
2022/03/15 08:47:03;;;;;;;29.52;14.57;;;13.90;50.00;;;;;;5073559;28;20380;-67
2022/03/15 08:49:28;;;;;;;26.30;16.08;;;13.90;49.90;;;;;;5074511;28;20025;-68
2022/03/15 08:51:54;;;;;;;23.02;14.15;;;13.90;48.90;;;;;;5075794;28;20469;-67
2022/03/15 08:54:22;;;;;;;22.85;14.65;;;14.00;49.10;;;;;;5077894;28;20020;-77
2022/03/15 08:56:52;;;;;;;22.98;14.57;;;14.00;48.70;;;;;;5079768;28;20535;-73
2022/03/15 08:59:20;;;;;;;20.80;14.05;;;14.10;49.80;;;;;;5074810;28;20053;-74
2022/03/15 09:01:46;;;;;;;23.60;14.98;;;14.10;48.80;;;;;;5071326;28;20044;-78
2022/03/15 09:04:12;;;;;;;23.48;14.95;;;14.20;49.20;;;;;;5071484;28;20032;-70
2022/03/15 09:06:38;;;;;;;19.30;14.10;;;14.30;49.30;;;;;;5072609;28;20112;-67
2022/03/15 09:09:10;;;;;;;19.88;14.30;;;14.40;49.50;;;;;;5072387;28;20025;-76
2022/03/15 09:11:35;;;;;;;21.30;13.68;;;14.40;50.70;;;;;;5072908;28;20024;-78
2022/03/15 09:14:02;;;;;;;18.40;13.73;;;14.50;49.70;;;;;;5077067;28;20017;-67
2022/03/15 09:16:28;;;;;;;22.35;14.13;;;14.50;49.80;;;;;;5076126;28;20477;-67
2022/03/15 09:18:54;;;;;;;19.15;14.45;;;14.60;50.00;;;;;;5076504;28;20036;-70
2022/03/15 09:21:20;;;;;;;23.30;14.90;;;14.70;50.70;;;;;;5075456;28;20044;-67
2022/03/15 09:23:46;;;;;;;23.65;15.07;;;14.80;50.10;;;;;;5076776;28;20037;-69
2022/03/15 09:26:12;;;;;;;24.92;14.70;;;14.90;50.30;;;;;;5077201;28;20093;-69
2022/03/15 09:28:38;;;;;;;22.33;13.15;;;14.90;50.40;;;;;;5076765;28;20020;-66
2022/03/15 09:31:04;;;;;;;22.58;13.45;;;14.90;50.50;;;;;;5076577;28;20414;-78
2022/03/15 09:33:30;;;;;;;14.38;9.27;;;15.00;50.40;;;;;;5076499;28;20020;-66
2022/03/15 09:35:57;;;;;;;15.90;9.20;;;15.00;51.00;;;;;;5076335;28;20036;-74
2022/03/15 09:38:24;;;;;;;14.05;7.20;;;15.10;51.50;;;;;;5076670;28;20032;-67
2022/03/15 09:40:52;;;;;;;10.85;6.95;;;15.20;51.80;;;;;;5076177;28;20071;-78
2022/03/15 09:43:24;;;;;;;13.68;6.80;;;15.30;51.80;;;;;;5075120;28;20025;-71
2022/03/15 09:45:52;;;;;;;9.98;6.13;;;15.40;53.00;;;;;;5076283;28;20038;-73
2022/03/15 09:48:24;;;;;;;12.35;6.93;;;15.50;52.60;;;;;;5076308;28;20060;-77
2022/03/15 09:50:52;;;;;;;12.75;5.68;;;15.60;52.00;;;;;;5074679;28;20120;-75
2022/03/15 09:53:19;;;;;;;10.07;6.63;;;15.70;52.10;;;;;;5076186;28;20028;-80
2022/03/15 09:55:50;;;;;;;14.02;6.18;;;15.70;52.10;;;;;;5076025;28;20113;-77
2022/03/15 09:58:20;;;;;;;8.65;5.63;;;15.80;53.00;;;;;;5075933;28;20060;-75
2022/03/15 10:00:52;;;;;;;8.68;6.18;;;15.90;52.30;;;;;;5076417;28;20477;-75
2022/03/15 10:03:18;;;;;;;10.63;6.07;;;15.90;51.90;;;;;;5076121;28;20031;-77
2022/03/15 10:05:46;;;;;;;14.75;6.60;;;16.00;51.50;;;;;;5075803;28;20044;-78
2022/03/15 10:08:17;;;;;;;12.35;5.65;;;16.10;52.30;;;;;;5074873;28;20041;-73
2022/03/15 10:10:47;;;;;;;10.95;5.45;;;16.10;51.70;;;;;;5076210;28;20028;-73
2022/03/15 10:13:13;;;;;;;10.88;5.40;;;16.30;51.70;;;;;;5074804;28;20029;-76
2022/03/15 10:15:55;;;;;;;10.32;5.00;;;16.40;51.70;;;;;;5074456;28;20040;-76
2022/03/15 10:18:21;;;;;;;12.75;5.82;;;16.50;51.50;;;;;;5075454;28;20044;-76
2022/03/15 10:20:48;;;;;;;11.82;4.90;;;16.60;51.00;;;;;;5074749;28;20032;-72
2022/03/15 10:23:17;;;;;;;10.80;5.55;;;16.60;50.60;;;;;;5075460;28;20025;-75
2022/03/15 10:25:47;;;;;;;11.60;6.03;;;16.70;50.40;;;;;;5075705;28;20055;-80
2022/03/15 10:28:15;;;;;;;8.95;5.68;;;16.70;50.30;;;;;;5075625;28;20474;-80
2022/03/15 10:30:43;;;;;;;13.80;5.53;;;16.80;50.20;;;;;;5075260;28;20021;-81
2022/03/15 10:33:12;;;;;;;9.20;5.57;;;17.00;50.20;;;;;;5075653;28;20036;-79
2022/03/15 10:35:48;;;;;;;8.77;5.55;;;17.00;49.80;;;;;;5075107;28;20082;-68
2022/03/15 10:38:14;;;;;;;11.75;6.47;;;17.10;49.70;;;;;;5074632;28;20536;-75
2022/03/15 10:40:47;;;;;;;12.77;7.38;;;17.20;49.90;;;;;;5075599;28;20044;-72
2022/03/15 10:43:19;;;;;;;11.20;6.43;;;17.40;49.90;;;;;;5075640;28;20108;-70
2022/03/15 10:45:56;;;;;;;12.98;6.20;;;17.50;50.20;;;;;;5075730;28;20033;-74
2022/03/15 10:48:32;;;;;;;11.40;5.28;;;17.70;49.80;;;;;;5074552;28;20087;-74
2022/03/15 10:51:11;;;;;;;12.13;5.90;;;17.80;47.60;;;;;;5077970;28;20422;-70
2022/03/15 10:53:40;;;;;;;10.07;6.28;;;18.00;48.90;;;;;;5081810;28;20124;-66
2022/03/15 10:56:14;;;;;;;10.23;5.40;;;18.10;47.30;;;;;;5083356;28;20017;-71
2022/03/15 10:58:49;;;;;;;8.73;5.93;;;18.10;48.30;;;;;;5075070;28;20052;-77
2022/03/15 11:01:28;;;;;;;13.60;5.07;;;18.20;48.10;;;;;;5075210;28;20073;-73
2022/03/15 11:04:00;;;;;;;9.65;4.95;;;18.20;46.70;;;;;;5075227;28;20078;-70
2022/03/15 11:06:30;;;;;;;10.02;5.20;;;18.30;47.60;;;;;;5075209;28;20206;-70
2022/03/15 11:08:59;;;;;;;9.20;5.10;;;18.30;46.90;;;;;;5075023;28;20037;-77
2022/03/15 11:11:26;;;;;;;9.57;4.82;;;18.30;47.10;;;;;;5075204;28;20035;-72
2022/03/15 11:14:04;;;;;;;11.32;5.57;;;18.40;47.40;;;;;;5074857;28;20028;-75
2022/03/15 11:16:32;;;;;;;8.13;4.65;;;18.40;47.60;;;;;;5073110;28;20105;-75
2022/03/15 11:19:03;;;;;;;9.18;4.88;;;18.50;47.90;;;;;;5074413;28;20108;-68
2022/03/15 11:21:34;;;;;;;8.23;4.47;;;18.70;45.70;;;;;;5074623;28;20040;-66
2022/03/15 11:24:02;;;;;;;8.52;4.60;;;18.70;45.60;;;;;;5073299;28;20020;-78
2022/03/15 11:26:31;;;;;;;9.02;4.50;;;18.90;46.80;;;;;;5073311;28;20021;-73
2022/03/15 11:28:58;;;;;;;7.93;4.38;;;19.00;46.90;;;;;;5074767;28;20028;-76
2022/03/15 11:31:27;;;;;;;9.95;4.85;;;19.10;46.10;;;;;;5074737;28;20044;-73
2022/03/15 11:33:55;;;;;;;9.90;4.65;;;19.20;46.00;;;;;;5073754;28;20040;-73
2022/03/15 11:36:26;;;;;;;10.90;4.60;;;19.30;45.80;;;;;;5073441;28;20020;-71
2022/03/15 11:38:53;;;;;;;11.40;5.13;;;19.40;44.70;;;;;;5074030;28;20111;-73
2022/03/15 11:41:21;;;;;;;8.43;4.68;;;19.30;45.60;;;;;;5072574;28;20045;-67
2022/03/15 11:43:56;;;;;;;10.85;5.47;;;19.40;45.50;;;;;;5074463;28;20090;-66
2022/03/15 11:46:29;;;;;;;13.75;5.63;;;19.40;45.10;;;;;;5074265;28;20021;-67
2022/03/15 11:49:14;;;;;;;13.70;6.55;;;19.40;45.10;;;;;;5072393;28;20032;-66
2022/03/15 11:52:17;;;;;;;9.95;4.57;;;19.30;45.00;;;;;;5073856;28;20482;-66
2022/03/15 11:54:59;;;;;;;15.03;4.53;;;19.30;43.90;;;;;;5072425;28;20481;-66
2022/03/15 11:57:38;;;;;;;7.18;4.10;;;19.30;45.10;;;;;;5073754;28;20274;-67
2022/03/15 12:00:05;;;;;;;8.95;4.35;;;19.40;45.10;;;;;;5073683;28;20016;-67
2022/03/15 12:02:39;;;;;;;7.32;4.18;;;19.40;44.70;;;;;;5071849;28;20536;-68
2022/03/15 12:05:18;;;;;;;;;;;19.50;45.10;;;;;;5073888;28;20028;-65
2022/03/15 12:07:46;;;;;;;8.85;4.55;;;19.50;43.80;;;;;;5072087;28;19917;-66
2022/03/15 12:10:23;;;;;;;9.32;4.40;;;19.50;45.10;;;;;;5073271;28;20094;-66
2022/03/15 12:13:02;;;;;;;10.40;5.20;;;19.50;44.90;;;;;;5073510;28;20489;-67
2022/03/15 12:15:38;;;;;;;7.80;4.80;;;19.60;44.10;;;;;;5073548;28;20081;-66
2022/03/15 12:21:09;;;;;;;9.43;4.53;;;19.60;44.10;;;;;;5073358;28;20460;-68
2022/03/15 12:23:44;;;;;;;8.73;5.32;;;19.60;45.20;;;;;;5073532;28;20052;-68
2022/03/15 12:26:31;;;;;;;7.20;4.67;;;19.50;45.40;;;;;;5073979;28;20414;-78
2022/03/15 12:29:13;;;;;;;9.35;4.93;;;19.60;44.40;;;;;;5073826;28;20158;-78
2022/03/15 12:31:46;;;;;;;9.68;4.57;;;19.60;44.40;;;;;;5073048;28;20025;-69
2022/03/15 12:34:17;;;;;;;6.65;4.20;;;19.70;44.40;;;;;;5073208;28;20028;-66
2022/03/15 12:36:58;;;;;;;13.40;4.57;;;19.70;45.00;;;;;;5073189;28;20028;-71
2022/03/15 12:39:28;;;;;;;8.93;4.65;;;19.70;44.10;;;;;;5071633;28;20043;-71
2022/03/15 12:42:09;;;;;;;9.43;4.75;;;19.70;44.70;;;;;;5073010;28;20116;-67
2022/03/15 12:44:43;;;;;;;15.10;5.13;;;19.80;44.00;;;;;;5073180;28;20032;-68
2022/03/15 12:47:09;;;;;;;19.10;5.13;;;19.90;44.60;;;;;;5072839;28;20032;-72